Terminal Aerodrome Forecast
Issued by NWS

Home | Current Version | Previous Version | Text Only | Print | Product List | Glossary On
Versions: 1 2 3 4 5 6 7 8 9 10 11 12 13 14 15
418
FTUS46 KPDT 081120
TAFYKM
TAF
KYKM 081120Z 0812/0912 27006KT P6SM SCT250
      TEMPO 0814/0818 SCT011 BKN250
     FM090400 17005KT 4SM BR SCT010 BKN250=

USA.gov is the U.S. government's official web portal to all federal, state and local government web resources and services.